METAR Data
IDs: Format: Raw Decoded Include TAF

Data at: 0812 UTC 18 Nov 2018

METAR for:LFOK (Chalons-Vatry(AFB), --, FR)
Text:LFOK 180800Z AUTO 03007KT 340V070 CAVOK 01/M02 Q1022 NOSIG
Temperature: 1.0°C ( 34°F)
Dewpoint: -2.0°C ( 28°F) [RH = 80%]
Pressure (altimeter):30.18 inches Hg (1022.0 mb)
Winds:from the NNE (30 degrees) at 8 MPH (7 knots; 3.6 m/s)
Visibility:6 or more sm (10+ km)
Ceiling:ceiling and visibility are OK
Clouds:unknown

TAF for:LFOK (Chalons-Vatry(AFB), --, FR) issued at 0500 UTC 18 Nov 2018
Text:TAF LFOK 180500Z 1806/1906 06010KT CAVOK
Forecast period:0600 UTC 18 November 2018 to 0600 UTC 19 November 2018
Forecast type:FROM: standard forecast or significant change
Winds:from the ENE (60 degrees) at 12 MPH (10 knots; 5.1 m/s)
Visibility:6 or more sm (10+ km)
Clouds:missing
Weather:NSW (no significant weather)